createdAt,value
2022-12-25T09:00:07.267Z,9.99
2022-12-25T09:02:34.207Z,10.06
2022-12-25T09:05:01.002Z,10.08
2022-12-25T09:07:27.675Z,10.13
2022-12-25T09:09:54.262Z,10.24
2022-12-25T09:12:21.007Z,10.45
2022-12-25T09:14:47.609Z,10.52
2022-12-25T09:17:14.208Z,10.55
2022-12-25T09:19:40.821Z,10.58
2022-12-25T09:22:07.408Z,10.70
2022-12-25T09:24:34.012Z,10.81
2022-12-25T09:27:00.632Z,10.95
2022-12-25T09:29:27.749Z,11.03
2022-12-25T09:31:54.425Z,11.10
2022-12-25T09:34:20.994Z,11.14
2022-12-25T09:36:47.597Z,11.15
2022-12-25T09:39:14.184Z,11.13
2022-12-25T09:41:53.568Z,11.13
2022-12-25T09:44:24.471Z,11.25
2022-12-25T09:46:54.869Z,11.32
2022-12-25T09:49:42.201Z,11.36
2022-12-25T09:52:13.876Z,11.48
2022-12-25T09:54:49.629Z,11.52
2022-12-25T09:57:16.409Z,11.73
2022-12-25T09:59:44.685Z,11.79
2022-12-25T10:02:36.743Z,11.93
2022-12-25T10:05:25.514Z,12.04
2022-12-25T10:08:01.400Z,12.05
2022-12-25T10:10:56.968Z,12.00
2022-12-25T10:13:52.331Z,11.80
2022-12-25T10:16:32.091Z,11.73
2022-12-25T10:19:10.607Z,11.80
2022-12-25T10:21:37.349Z,11.79
2022-12-25T10:24:25.144Z,11.84
2022-12-25T10:26:53.874Z,11.80
2022-12-25T10:29:20.478Z,11.81
2022-12-25T10:31:49.935Z,11.66
2022-12-25T10:34:16.910Z,11.69
2022-12-25T10:36:45.075Z,11.67
2022-12-25T10:39:17.555Z,11.62
2022-12-25T10:42:18.063Z,11.63
2022-12-25T10:45:02.467Z,11.53
2022-12-25T10:47:33.633Z,11.55
2022-12-25T10:50:01.648Z,11.61
2022-12-25T10:52:29.203Z,11.71
2022-12-25T10:54:56.383Z,11.74
2022-12-25T10:57:24.723Z,11.79
2022-12-25T10:59:56.551Z,11.89
2022-12-25T11:02:28.999Z,11.81
2022-12-25T11:05:10.158Z,11.91
2022-12-25T11:07:46.807Z,12.04
2022-12-25T11:10:31.513Z,11.91
2022-12-25T11:12:59.565Z,11.88
2022-12-25T11:15:45.268Z,12.04
2022-12-25T11:18:22.480Z,12.20
2022-12-25T11:20:54.913Z,12.25
2022-12-25T11:23:23.317Z,12.28
2022-12-25T11:26:03.300Z,12.37
2022-12-25T11:28:31.517Z,12.41
2022-12-25T11:31:01.901Z,12.45
2022-12-25T11:33:34.834Z,12.47
2022-12-25T11:36:06.452Z,12.45
2022-12-25T11:38:33.179Z,12.50
2022-12-25T11:41:01.466Z,12.58
2022-12-25T11:43:56.470Z,12.60
2022-12-25T11:46:27.911Z,12.60
2022-12-25T11:49:00.757Z,12.63
2022-12-25T11:51:33.218Z,12.63
2022-12-25T11:54:05.083Z,12.76
2022-12-25T11:56:31.852Z,12.74
2022-12-25T11:59:31.280Z,12.74
2022-12-25T12:02:18.904Z,12.77
2022-12-25T12:04:49.100Z,12.83
2022-12-25T12:07:27.814Z,12.95
2022-12-25T12:10:07.569Z,12.94
2022-12-25T12:12:54.825Z,12.89
2022-12-25T12:15:41.556Z,12.86
2022-12-25T12:18:16.888Z,12.82
2022-12-25T12:20:43.572Z,12.71
2022-12-25T12:23:16.856Z,12.70
2022-12-25T12:25:44.745Z,12.64
2022-12-25T12:28:21.616Z,12.66
2022-12-25T12:31:03.199Z,12.51
2022-12-25T12:33:42.580Z,12.44
2022-12-25T12:36:12.450Z,12.41
2022-12-25T12:38:41.183Z,12.34
2022-12-25T12:41:09.200Z,12.25
2022-12-25T12:43:45.442Z,12.18
2022-12-25T12:46:36.661Z,12.20
2022-12-25T12:49:32.865Z,12.09
2022-12-25T12:52:07.223Z,12.07
2022-12-25T12:55:18.101Z,12.05
2022-12-25T12:57:44.849Z,12.03
2022-12-25T13:00:17.849Z,11.97
2022-12-25T13:03:35.497Z,11.90
2022-12-25T13:06:21.104Z,11.80
2022-12-25T13:09:11.015Z,11.86
2022-12-25T13:11:40.909Z,11.88
2022-12-25T13:14:16.245Z,11.67
2022-12-25T13:16:45.819Z,11.59
2022-12-25T13:19:22.361Z,11.57
2022-12-25T13:21:59.068Z,11.56
2022-12-25T13:24:30.624Z,11.49
2022-12-25T13:26:57.545Z,11.42
2022-12-25T13:29:28.919Z,11.40
2022-12-25T13:31:56.513Z,11.29
2022-12-25T13:34:42.339Z,11.28
2022-12-25T13:37:21.540Z,11.30
2022-12-25T13:40:02.162Z,11.20
2022-12-25T13:42:32.865Z,11.21
2022-12-25T13:45:02.032Z,11.12
2022-12-25T13:47:56.132Z,10.95
2022-12-25T13:50:35.089Z,10.86
2022-12-25T13:53:16.786Z,10.87
2022-12-25T19:24:44.349Z,3.37
